Time;durP1;ratioP1;P1;durP2;ratioP2;P2;SDS_P1;SDS_P2;PMS_P1;PMS_P2;Temp;Humidity;BMP_temperature;BMP_pressure;BME280_temperature;BME280_humidity;BME280_pressure;Samples;Min_cycle;Max_cycle;Signal;HPM_P1;HPM_P2
2021/12/08 00:00:54;;;;;;;5.10;3.42;;;3.70;99.90;;;;;;5035507;28;20048;-78
2021/12/08 00:03:22;;;;;;;6.63;3.92;;;3.80;99.90;;;;;;5052939;28;20009;-79
2021/12/08 00:05:48;;;;;;;7.97;4.28;;;3.90;99.90;;;;;;5047164;28;20419;-75
2021/12/08 00:08:18;;;;;;;6.57;4.35;;;3.80;99.90;;;;;;5055627;28;20032;-76
2021/12/08 00:13:29;;;;;;;6.32;4.07;;;3.60;99.90;;;;;;5038801;28;20124;-77
2021/12/08 00:15:59;;;;;;;8.15;4.45;;;3.60;99.90;;;;;;5045003;28;20083;-78
2021/12/08 00:18:29;;;;;;;7.03;5.55;;;3.50;99.90;;;;;;5020832;28;20485;-77
2021/12/08 00:21:00;;;;;;;11.82;4.72;;;3.60;99.90;;;;;;5025283;28;20022;-77
2021/12/08 00:23:27;;;;;;;7.68;4.45;;;3.40;99.90;;;;;;5017727;28;20024;-77
2021/12/08 00:25:54;;;;;;;5.35;3.55;;;3.50;99.90;;;;;;5046976;28;20029;-75
2021/12/08 00:28:20;;;;;;;7.00;4.57;;;3.40;99.90;;;;;;5039005;28;20100;-76
2021/12/08 00:30:49;;;;;;;8.50;3.97;;;3.40;99.90;;;;;;5047905;28;20018;-78
2021/12/08 00:33:16;;;;;;;4.57;3.10;;;3.40;99.90;;;;;;5037721;28;20041;-77
2021/12/08 00:35:45;;;;;;;4.85;3.20;;;3.50;99.90;;;;;;5002620;28;20038;-77
2021/12/08 00:38:10;;;;;;;5.35;3.40;;;3.40;99.90;;;;;;5017441;28;20034;-77
2021/12/08 00:40:36;;;;;;;4.70;3.33;;;3.40;99.90;;;;;;5008249;28;20390;-77
2021/12/08 00:43:04;;;;;;;4.10;3.05;;;3.50;99.90;;;;;;4986216;28;20060;-77
2021/12/08 00:45:29;;;;;;;7.95;3.15;;;3.50;99.90;;;;;;4997315;28;20086;-78
2021/12/08 00:47:56;;;;;;;5.63;3.58;;;3.50;99.90;;;;;;5004771;28;20014;-78
2021/12/08 00:50:26;;;;;;;8.30;2.92;;;3.60;99.90;;;;;;5003991;28;20102;-76
2021/12/08 00:52:52;;;;;;;4.30;1.90;;;3.70;99.90;;;;;;5012917;28;20061;-78
2021/12/08 00:55:19;;;;;;;4.97;3.13;;;3.90;99.90;;;;;;5006697;28;20026;-77
2021/12/08 00:57:45;;;;;;;5.45;2.38;;;3.80;99.90;;;;;;5014435;28;20026;-76
2021/12/08 01:00:15;;;;;;;4.07;2.58;;;3.70;99.90;;;;;;4997015;28;20397;-76
2021/12/08 01:02:41;;;;;;;3.53;2.47;;;3.60;99.90;;;;;;5001599;28;20022;-76
2021/12/08 01:05:12;;;;;;;5.80;2.45;;;3.50;99.90;;;;;;4996359;28;20057;-77
2021/12/08 01:07:38;;;;;;;6.15;2.50;;;3.60;99.90;;;;;;5013321;28;20441;-75
2021/12/08 01:10:08;;;;;;;4.00;2.75;;;3.50;99.90;;;;;;4980883;28;20034;-77
2021/12/08 01:12:34;;;;;;;3.45;2.20;;;3.50;99.90;;;;;;4984045;28;20027;-76
2021/12/08 01:15:00;;;;;;;4.13;2.83;;;3.50;99.90;;;;;;4994534;28;20080;-77
2021/12/08 01:17:25;;;;;;;5.50;2.00;;;3.40;99.90;;;;;;4992306;28;20513;-76
2021/12/08 01:19:51;;;;;;;4.15;2.33;;;3.40;99.90;;;;;;4994574;28;20070;-77
2021/12/08 01:22:17;;;;;;;5.32;2.38;;;3.40;99.90;;;;;;4997878;28;20042;-76
2021/12/08 01:24:42;;;;;;;4.03;2.33;;;3.40;99.90;;;;;;4996053;28;20450;-77
2021/12/08 01:27:08;;;;;;;4.80;2.33;;;3.40;99.90;;;;;;4999758;28;20026;-76
2021/12/08 01:29:34;;;;;;;3.45;1.83;;;3.40;99.90;;;;;;5011975;28;20030;-76
2021/12/08 01:31:59;;;;;;;2.47;1.70;;;3.30;99.90;;;;;;5002552;28;20041;-73
2021/12/08 01:34:25;;;;;;;3.78;2.00;;;3.30;99.90;;;;;;4985437;28;20026;-74
2021/12/08 01:36:51;;;;;;;1.83;1.70;;;3.30;99.90;;;;;;4994263;28;20033;-73
2021/12/08 01:39:17;;;;;;;3.92;2.08;;;3.30;99.90;;;;;;5008578;28;20032;-72
2021/12/08 01:41:44;;;;;;;3.03;1.63;;;3.30;99.90;;;;;;4995516;28;20030;-75
2021/12/08 01:46:54;;;;;;;1.60;1.50;;;3.30;99.90;;;;;;4997507;28;20033;-76
2021/12/08 01:49:21;;;;;;;2.90;1.67;;;3.40;99.90;;;;;;5011502;28;20105;-75
2021/12/08 01:51:48;;;;;;;2.05;1.50;;;3.30;99.90;;;;;;4986420;28;20022;-77
2021/12/08 01:54:13;;;;;;;3.90;1.50;;;3.40;99.90;;;;;;4985478;28;20073;-75
2021/12/08 01:56:39;;;;;;;2.72;1.50;;;3.30;99.90;;;;;;4984901;28;20026;-74
2021/12/08 01:59:07;;;;;;;2.95;1.80;;;3.30;99.90;;;;;;4985441;28;20022;-76
2021/12/08 02:01:36;;;;;;;2.38;1.77;;;3.20;99.90;;;;;;5019162;28;20077;-73
2021/12/08 02:04:04;;;;;;;2.63;1.60;;;3.10;99.90;;;;;;5012198;28;20023;-74
2021/12/08 02:06:32;;;;;;;1.42;1.25;;;3.10;99.90;;;;;;5007282;28;20018;-74
2021/12/08 02:08:57;;;;;;;2.65;1.52;;;3.10;99.90;;;;;;5004845;28;20019;-76
2021/12/08 02:11:23;;;;;;;4.32;1.90;;;3.10;99.90;;;;;;5037337;23;20077;-83
2021/12/08 02:13:52;;;;;;;2.33;1.30;;;3.20;99.90;;;;;;5008831;28;20042;-80
2021/12/08 02:16:18;;;;;;;4.20;1.25;;;3.30;99.90;;;;;;4991943;28;20041;-82
2021/12/08 02:18:47;;;;;;;3.10;1.63;;;3.50;99.90;;;;;;4989843;28;20137;-79
2021/12/08 02:21:25;;;;;;;2.17;1.55;;;3.60;99.90;;;;;;5003757;28;20031;-80
2021/12/08 02:23:52;;;;;;;3.28;1.63;;;3.40;99.90;;;;;;5000688;28;20026;-81
2021/12/08 02:26:17;;;;;;;3.03;1.55;;;3.30;99.90;;;;;;5002612;28;20050;-80
2021/12/08 02:28:44;;;;;;;2.67;1.73;;;3.40;99.90;;;;;;5006557;28;20022;-82
2021/12/08 02:31:14;;;;;;;2.10;1.83;;;3.30;99.90;;;;;;5014678;28;20029;-79
2021/12/08 02:50:10;;;;;;;4.60;2.20;;;3.10;99.90;;;;;;5004709;28;20147;-81
2021/12/08 02:52:36;;;;;;;3.63;2.20;;;3.00;99.90;;;;;;4982639;28;20113;-81
2021/12/08 02:55:06;;;;;;;3.88;2.10;;;3.10;99.90;;;;;;5001962;28;20060;-82
2021/12/08 02:57:32;;;;;;;4.03;2.23;;;3.10;99.90;;;;;;5004646;28;20034;-80
2021/12/08 02:59:57;;;;;;;3.40;1.80;;;3.10;99.90;;;;;;4997712;28;20281;-79
2021/12/08 03:02:23;;;;;;;1.80;1.55;;;3.10;99.90;;;;;;5007456;28;20034;-78
2021/12/08 03:04:49;;;;;;;2.35;1.75;;;3.10;99.90;;;;;;4990400;28;20018;-80
2021/12/08 03:07:15;;;;;;;4.00;2.47;;;3.10;99.90;;;;;;5009185;28;20050;-80
2021/12/08 03:09:41;;;;;;;4.68;2.33;;;3.10;99.90;;;;;;5008377;28;20062;-80
2021/12/08 03:12:07;;;;;;;3.00;2.17;;;3.10;99.90;;;;;;5008883;28;20046;-82
2021/12/08 03:14:33;;;;;;;5.03;2.80;;;3.10;99.90;;;;;;4999561;28;20026;-80
2021/12/08 03:17:07;;;;;;;3.65;2.35;;;3.00;99.90;;;;;;4999458;28;20279;-81
2021/12/08 03:19:33;;;;;;;3.97;3.40;;;3.00;99.90;;;;;;5023009;28;20037;-83
2021/12/08 03:21:59;;;;;;;3.90;2.40;;;3.00;99.90;;;;;;5015264;28;20030;-85
2021/12/08 03:24:35;;;;;;;3.22;2.22;;;3.00;99.90;;;;;;5015344;28;20022;-82
2021/12/08 03:29:50;;;;;;;4.25;1.95;;;2.90;99.90;;;;;;5004838;28;20390;-79
2021/12/08 03:32:25;;;;;;;4.70;2.90;;;3.00;99.90;;;;;;4998885;28;20042;-80
2021/12/08 03:34:53;;;;;;;4.60;2.33;;;2.90;99.90;;;;;;5007240;28;20438;-79
2021/12/08 03:37:25;;;;;;;5.30;2.58;;;2.90;99.90;;;;;;5000008;28;20090;-80
2021/12/08 03:39:51;;;;;;;3.92;2.53;;;3.00;99.90;;;;;;5000752;28;20521;-79
2021/12/08 03:42:20;;;;;;;4.57;2.70;;;3.00;99.90;;;;;;5010583;28;20084;-80
2021/12/08 03:44:54;;;;;;;5.05;2.50;;;3.00;99.90;;;;;;5006228;28;20061;-80
2021/12/08 03:47:26;;;;;;;6.18;2.53;;;3.10;99.90;;;;;;4998061;28;20030;-81
2021/12/08 03:49:52;;;;;;;2.83;2.03;;;3.30;99.90;;;;;;4987439;28;20037;-83
2021/12/08 03:52:18;;;;;;;5.57;2.95;;;3.30;99.90;;;;;;4985954;28;20048;-80
2021/12/08 03:54:44;;;;;;;4.45;2.80;;;3.20;99.90;;;;;;4998944;28;20034;-79
2021/12/08 03:57:11;;;;;;;4.45;2.17;;;3.20;99.90;;;;;;5018940;28;20041;-78
2021/12/08 03:59:37;;;;;;;5.00;2.72;;;3.10;99.90;;;;;;5008611;28;20049;-79
2021/12/08 04:02:03;;;;;;;5.68;2.83;;;3.10;99.90;;;;;;5008691;28;20023;-80
2021/12/08 04:04:30;;;;;;;4.93;2.42;;;3.10;99.90;;;;;;4987755;28;20037;-78
2021/12/08 04:07:01;;;;;;;7.07;3.45;;;3.10;99.90;;;;;;5017014;28;20086;-83
2021/12/08 04:11:55;;;;;;;3.38;2.17;;;3.20;99.90;;;;;;5023377;28;20110;-82
2021/12/08 04:14:23;;;;;;;4.40;2.10;;;3.20;99.90;;;;;;5017634;28;20034;-84
2021/12/08 04:17:02;;;;;;;3.95;2.60;;;3.30;99.90;;;;;;5017996;28;20049;-82
2021/12/08 04:19:28;;;;;;;4.55;2.05;;;3.30;99.90;;;;;;5016564;28;20027;-81
2021/12/08 04:21:56;;;;;;;3.70;2.78;;;3.30;99.90;;;;;;5017790;28;20073;-80
2021/12/08 04:24:22;;;;;;;3.00;2.03;;;3.20;99.90;;;;;;5001783;28;20475;-79
2021/12/08 04:26:55;;;;;;;4.13;2.10;;;3.30;99.90;;;;;;4999230;28;20380;-82
2021/12/08 04:29:28;;;;;;;3.72;2.15;;;3.30;99.90;;;;;;5020966;28;20026;-83
2021/12/08 04:31:55;;;;;;;5.22;2.10;;;3.40;99.90;;;;;;5017164;28;20061;-83
2021/12/08 04:34:27;;;;;;;3.78;1.90;;;3.50;99.90;;;;;;5018943;28;20073;-83
2021/12/08 04:36:56;;;;;;;4.63;2.40;;;3.50;99.90;;;;;;5031348;28;20213;-82
2021/12/08 04:39:47;;;;;;;4.20;3.22;;;3.50;99.90;;;;;;5024477;28;20041;-84
2021/12/08 04:42:18;;;;;;;3.83;2.92;;;3.50;99.90;;;;;;5027173;28;20034;-81
2021/12/08 04:44:51;;;;;;;6.25;3.17;;;3.50;99.90;;;;;;5021961;28;20134;-80
2021/12/08 05:06:04;;;;;;;4.82;3.72;;;4.00;99.90;;;;;;5006389;28;20073;-81
2021/12/08 05:08:41;;;;;;;4.40;3.20;;;4.00;99.90;;;;;;4999104;28;20014;-80
2021/12/08 05:11:11;;;;;;;6.45;3.20;;;3.80;99.90;;;;;;4998307;28;20034;-81
2021/12/08 05:13:39;;;;;;;4.95;3.38;;;3.80;99.90;;;;;;5016711;28;20029;-82
2021/12/08 05:16:05;;;;;;;4.78;3.15;;;3.80;99.90;;;;;;5017749;28;20040;-83
2021/12/08 05:18:35;;;;;;;11.38;3.55;;;3.70;99.90;;;;;;5017246;28;20026;-82
2021/12/08 05:21:03;;;;;;;8.45;3.60;;;3.70;99.90;;;;;;5012547;28;20455;-81
2021/12/08 05:23:37;;;;;;;7.32;4.15;;;3.70;99.90;;;;;;5003722;28;20026;-82
2021/12/08 05:26:07;;;;;;;6.22;4.20;;;3.70;99.90;;;;;;4984126;28;20019;-81
2021/12/08 05:28:33;;;;;;;6.07;4.55;;;3.70;99.90;;;;;;4999764;28;20415;-81
2021/12/08 05:31:09;;;;;;;6.90;4.40;;;3.70;99.90;;;;;;4999588;28;20057;-81
2021/12/08 05:33:36;;;;;;;4.28;3.88;;;3.70;99.90;;;;;;4984751;28;20109;-80
2021/12/08 05:36:03;;;;;;;4.00;3.67;;;3.80;99.90;;;;;;4999907;28;20030;-81
2021/12/08 05:38:30;;;;;;;7.03;3.97;;;3.80;99.90;;;;;;4997251;28;20053;-83
2021/12/08 05:41:10;;;;;;;4.00;3.58;;;3.90;99.90;;;;;;4998920;28;20027;-83
2021/12/08 05:43:36;;;;;;;5.50;3.92;;;3.90;99.90;;;;;;4974779;28;20023;-82
2021/12/08 05:46:03;;;;;;;6.43;3.88;;;4.00;99.90;;;;;;4998962;28;20045;-80
2021/12/08 05:48:31;;;;;;;5.38;4.00;;;4.00;99.90;;;;;;4997482;28;20374;-79
2021/12/08 05:51:13;;;;;;;6.78;5.00;;;4.00;99.90;;;;;;4998107;28;20292;-81
2021/12/08 05:53:43;;;;;;;5.40;4.88;;;4.10;99.90;;;;;;5002841;28;20066;-80
2021/12/08 05:56:09;;;;;;;8.75;6.07;;;4.10;99.90;;;;;;5008982;28;20027;-82
2021/12/08 05:58:36;;;;;;;9.73;4.65;;;4.10;99.90;;;;;;5002256;28;20038;-81
2021/12/08 06:01:12;;;;;;;6.82;4.32;;;4.10;99.90;;;;;;5005790;28;20031;-77
2021/12/08 06:03:39;;;;;;;6.40;4.28;;;4.40;99.90;;;;;;5007812;28;20034;-79
2021/12/08 06:06:05;;;;;;;4.72;3.97;;;4.70;99.90;;;;;;5006569;28;20561;-79
2021/12/08 06:08:31;;;;;;;6.57;4.07;;;4.80;99.90;;;;;;5001959;28;20030;-79
2021/12/08 06:11:01;;;;;;;6.88;4.78;;;4.60;99.90;;;;;;5005058;28;20294;-79
2021/12/08 06:13:27;;;;;;;5.40;4.53;;;4.30;99.90;;;;;;5006253;28;20086;-78
2021/12/08 06:15:53;;;;;;;6.07;4.28;;;4.30;99.90;;;;;;5021660;28;20030;-78
2021/12/08 06:18:26;;;;;;;4.88;4.00;;;4.50;99.90;;;;;;5006043;28;20037;-79
2021/12/08 06:20:55;;;;;;;5.50;3.72;;;4.60;99.90;;;;;;5010843;28;20034;-78
2021/12/08 06:23:21;;;;;;;4.72;4.22;;;4.60;99.90;;;;;;4993650;28;20497;-81
2021/12/08 06:25:47;;;;;;;6.57;3.90;;;4.60;99.90;;;;;;5008692;28;20033;-79
2021/12/08 06:28:13;;;;;;;8.65;4.82;;;4.60;99.90;;;;;;5012974;28;20023;-81
2021/12/08 06:30:45;;;;;;;6.97;4.97;;;4.60;99.90;;;;;;5005344;28;20022;-79
2021/12/08 06:33:11;;;;;;;6.20;4.03;;;4.60;99.90;;;;;;4987910;28;20057;-81
2021/12/08 06:35:41;;;;;;;4.85;4.20;;;4.60;99.90;;;;;;5001708;28;20042;-79
2021/12/08 06:38:08;;;;;;;10.57;4.60;;;4.60;99.90;;;;;;5002166;28;20022;-80
2021/12/08 06:40:37;;;;;;;7.63;5.30;;;4.60;99.90;;;;;;5005897;28;20033;-79
2021/12/08 06:43:12;;;;;;;11.20;4.68;;;4.40;99.90;;;;;;5004968;28;20086;-78
2021/12/08 06:45:44;;;;;;;11.45;5.63;;;4.30;99.90;;;;;;4992988;28;20025;-81
2021/12/08 06:48:15;;;;;;;6.93;5.07;;;4.20;99.90;;;;;;5003180;28;20053;-81
2021/12/08 06:50:45;;;;;;;7.22;4.82;;;4.20;99.90;;;;;;5007034;28;20185;-79
2021/12/08 06:53:11;;;;;;;;;;;4.10;99.90;;;;;;5004306;28;20030;-81
2021/12/08 06:55:46;;;;;;;10.80;5.30;;;4.20;99.90;;;;;;4998337;28;19921;-80
2021/12/08 06:58:19;;;;;;;6.50;5.75;;;4.20;99.90;;;;;;5004160;28;20022;-81
2021/12/08 07:03:41;;;;;;;6.10;5.22;;;4.20;99.90;;;;;;5006133;28;20026;-79
2021/12/08 07:06:40;;;;;;;5.05;4.55;;;4.20;99.90;;;;;;5007123;28;20065;-80
2021/12/08 07:09:06;;;;;;;5.80;4.75;;;4.30;99.90;;;;;;5002550;28;20030;-79
2021/12/08 07:11:32;;;;;;;8.93;6.03;;;4.30;99.90;;;;;;5005101;28;20022;-78
2021/12/08 07:13:58;;;;;;;7.50;6.13;;;4.40;99.90;;;;;;5005744;28;20109;-82
2021/12/08 07:16:31;;;;;;;7.30;6.15;;;4.40;99.90;;;;;;4988930;28;20034;-82
2021/12/08 07:19:08;;;;;;;6.93;5.75;;;4.40;99.90;;;;;;4988558;28;20030;-78
2021/12/08 07:21:39;;;;;;;10.13;6.35;;;4.40;99.90;;;;;;5007114;28;20030;-79
2021/12/08 07:24:19;;;;;;;10.77;7.07;;;4.40;99.90;;;;;;5005735;28;20110;-79
2021/12/08 07:26:47;;;;;;;6.55;5.43;;;4.40;99.90;;;;;;5014442;28;20023;-81
2021/12/08 07:29:17;;;;;;;7.88;5.72;;;4.40;99.90;;;;;;5015573;28;20019;-78
2021/12/08 07:31:51;;;;;;;6.20;4.95;;;4.50;99.90;;;;;;5021678;28;20033;-80
2021/12/08 07:34:19;;;;;;;5.25;4.63;;;4.50;99.90;;;;;;5004988;28;20049;-80
2021/12/08 07:36:49;;;;;;;5.78;4.68;;;4.50;99.90;;;;;;4993714;28;20030;-79
2021/12/08 07:39:20;;;;;;;5.32;4.30;;;4.50;99.90;;;;;;5011635;28;20380;-80
2021/12/08 07:41:52;;;;;;;6.25;4.53;;;4.50;99.90;;;;;;5014218;28;20030;-80
2021/12/08 07:44:20;;;;;;;4.85;4.38;;;4.50;99.90;;;;;;4968216;28;20034;-80
2021/12/08 07:47:08;;;;;;;4.75;4.35;;;4.50;99.90;;;;;;5009285;28;20081;-78
2021/12/08 07:49:39;;;;;;;7.72;5.72;;;4.60;99.90;;;;;;5007764;28;20109;-79
2021/12/08 07:52:08;;;;;;;10.27;5.70;;;4.60;99.90;;;;;;5006687;28;20014;-80
2021/12/08 07:54:35;;;;;;;7.95;6.20;;;4.70;99.90;;;;;;5010497;28;20023;-80
2021/12/08 07:57:07;;;;;;;8.00;5.40;;;4.90;99.90;;;;;;4988810;28;20033;-80
2021/12/08 07:59:35;;;;;;;7.15;5.25;;;4.90;99.90;;;;;;5008845;28;20133;-79
2021/12/08 08:02:06;;;;;;;5.68;5.15;;;4.90;99.90;;;;;;4982344;28;20022;-80
2021/12/08 08:04:35;;;;;;;6.00;5.18;;;5.00;99.90;;;;;;5025757;28;20018;-80
2021/12/08 08:07:01;;;;;;;9.13;5.30;;;5.00;99.90;;;;;;5010449;28;20049;-80
2021/12/08 08:09:33;;;;;;;14.20;6.60;;;4.80;99.90;;;;;;4995575;28;20099;-79
2021/12/08 08:12:01;;;;;;;6.30;5.57;;;4.70;99.90;;;;;;5026423;22;20096;-73
2021/12/08 08:14:39;;;;;;;6.28;5.45;;;4.50;99.90;;;;;;4993817;28;20475;-73
2021/12/08 08:17:08;;;;;;;6.57;5.03;;;4.60;99.90;;;;;;5012508;28;20066;-74
2021/12/08 08:19:41;;;;;;;5.65;5.05;;;4.60;99.90;;;;;;4996891;28;20100;-74
2021/12/08 08:22:10;;;;;;;8.20;6.03;;;4.80;99.90;;;;;;5022430;28;20029;-71
2021/12/08 08:24:37;;;;;;;7.80;6.35;;;4.70;99.90;;;;;;5039094;28;20053;-74
2021/12/08 08:27:06;;;;;;;9.10;6.38;;;4.90;99.90;;;;;;5034922;28;20037;-74
2021/12/08 08:29:32;;;;;;;6.65;5.95;;;4.80;99.90;;;;;;5012755;28;20025;-73
2021/12/08 08:32:07;;;;;;;9.77;5.88;;;4.80;99.90;;;;;;5017613;28;20026;-73
2021/12/08 08:34:39;;;;;;;8.07;6.53;;;4.80;99.90;;;;;;5016198;28;20117;-73
2021/12/08 08:37:08;;;;;;;6.75;5.97;;;4.80;99.90;;;;;;5022569;28;20469;-74
2021/12/08 08:39:38;;;;;;;9.70;6.32;;;4.80;99.90;;;;;;5017085;28;20087;-73
2021/12/08 08:42:16;;;;;;;8.88;5.63;;;4.80;99.90;;;;;;5013902;28;20027;-74
2021/12/08 08:44:49;;;;;;;7.10;5.32;;;4.80;99.90;;;;;;5022569;28;20022;-73
2021/12/08 08:47:31;;;;;;;5.65;5.00;;;5.00;99.90;;;;;;5021541;28;20031;-73
2021/12/08 08:49:57;;;;;;;7.05;4.80;;;5.00;99.90;;;;;;5014473;28;20053;-72
2021/12/08 08:52:35;;;;;;;6.38;4.85;;;5.20;99.90;;;;;;5024350;28;20060;-72
2021/12/08 08:55:10;;;;;;;8.68;4.78;;;5.30;99.90;;;;;;5018449;28;20374;-73
2021/12/08 08:57:40;;;;;;;5.75;5.03;;;5.20;99.90;;;;;;5012337;28;20025;-74
2021/12/08 09:00:13;;;;;;;5.55;5.03;;;5.20;99.90;;;;;;5017958;28;20092;-74
2021/12/08 09:02:39;;;;;;;6.63;4.50;;;5.10;99.90;;;;;;5020476;28;20052;-75
2021/12/08 09:05:32;;;;;;;6.95;5.03;;;5.00;99.90;;;;;;5017251;28;20018;-74
2021/12/08 09:07:59;;;;;;;6.05;5.30;;;5.00;99.90;;;;;;5003028;28;20026;-73
2021/12/08 09:10:38;;;;;;;6.30;5.25;;;5.00;99.90;;;;;;5023505;28;20037;-73
2021/12/08 09:13:07;;;;;;;6.40;5.78;;;5.00;99.90;;;;;;5012086;28;20117;-73
2021/12/08 09:15:41;;;;;;;12.15;5.10;;;5.00;99.90;;;;;;5013272;28;20033;-74
2021/12/08 09:18:39;;;;;;;5.53;4.53;;;5.00;99.90;;;;;;4998547;28;20416;-74
2021/12/08 09:21:16;;;;;;;5.75;4.78;;;5.10;99.90;;;;;;5014176;28;20091;-73
2021/12/08 09:24:09;;;;;;;10.55;5.20;;;5.10;99.90;;;;;;5017433;28;20493;-74
2021/12/08 09:26:38;;;;;;;9.25;5.13;;;5.20;99.90;;;;;;4992210;28;20029;-74
2021/12/08 09:29:10;;;;;;;12.80;6.53;;;5.30;99.90;;;;;;5021915;28;20061;-75
2021/12/08 09:31:49;;;;;;;7.15;5.72;;;5.20;99.90;;;;;;5031401;28;20470;-74
2021/12/08 09:34:23;;;;;;;7.07;4.75;;;5.50;99.90;;;;;;5027745;28;20061;-74
2021/12/08 09:36:56;;;;;;;15.02;4.80;;;5.50;99.90;;;;;;5039751;28;20018;-74
2021/12/08 09:39:33;;;;;;;11.13;6.03;;;5.50;99.90;;;;;;5033912;28;20022;-74
2021/12/08 09:42:07;;;;;;;5.88;5.28;;;5.40;99.90;;;;;;5018171;28;20544;-73
2021/12/08 09:44:48;;;;;;;5.80;5.28;;;5.30;99.90;;;;;;5028418;28;20044;-75
2021/12/08 09:47:15;;;;;;;5.18;4.50;;;5.30;99.90;;;;;;5028593;28;20053;-74
2021/12/08 09:49:42;;;;;;;11.65;5.65;;;5.30;99.90;;;;;;5032616;28;20036;-74
2021/12/08 09:52:08;;;;;;;8.00;6.03;;;5.50;99.90;;;;;;5034727;28;20022;-72
2021/12/08 09:54:37;;;;;;;6.63;5.03;;;5.70;99.90;;;;;;5024694;28;20108;-73
2021/12/08 09:57:08;;;;;;;9.30;5.47;;;5.50;99.90;;;;;;5023201;28;20093;-74
2021/12/08 09:59:35;;;;;;;5.72;4.68;;;5.40;99.90;;;;;;5004104;28;20053;-73
2021/12/08 10:02:04;;;;;;;5.95;5.38;;;5.40;99.90;;;;;;5008776;28;20022;-73
2021/12/08 10:04:30;;;;;;;6.20;5.60;;;5.30;99.90;;;;;;5021446;28;20049;-73
2021/12/08 10:06:59;;;;;;;9.48;5.75;;;5.30;99.90;;;;;;5025083;28;20040;-73
2021/12/08 10:09:25;;;;;;;7.90;5.03;;;5.30;99.90;;;;;;5018547;28;20018;-73
2021/12/08 10:11:54;;;;;;;10.93;5.88;;;5.50;99.90;;;;;;5014579;28;20040;-73
2021/12/08 10:14:21;;;;;;;6.95;5.25;;;5.70;99.90;;;;;;5015734;28;20374;-73
2021/12/08 10:16:50;;;;;;;9.50;6.43;;;5.90;99.90;;;;;;5025766;28;20486;-74
2021/12/08 10:19:17;;;;;;;7.78;6.15;;;5.70;99.90;;;;;;5026926;28;20562;-74
2021/12/08 10:21:44;;;;;;;6.28;5.68;;;5.70;99.90;;;;;;5020544;28;20048;-74
2021/12/08 10:24:25;;;;;;;7.68;6.47;;;5.60;99.90;;;;;;5026489;28;20068;-74
2021/12/08 10:26:53;;;;;;;11.55;6.93;;;5.70;99.90;;;;;;5026152;28;20018;-73
2021/12/08 10:29:24;;;;;;;8.90;6.85;;;5.70;99.90;;;;;;5026869;28;20504;-73
2021/12/08 10:31:53;;;;;;;11.38;7.28;;;5.70;99.90;;;;;;5003316;28;20398;-74
2021/12/08 10:34:29;;;;;;;10.52;7.07;;;5.50;99.90;;;;;;5031459;28;20486;-74
2021/12/08 10:37:18;;;;;;;13.30;7.47;;;5.40;99.90;;;;;;5011404;28;20473;-74
2021/12/08 10:39:47;;;;;;;7.10;6.32;;;5.40;99.90;;;;;;5018044;28;20424;-75
2021/12/08 10:42:18;;;;;;;7.45;6.07;;;5.70;99.90;;;;;;5025780;28;20022;-74
2021/12/08 10:45:09;;;;;;;8.55;6.55;;;5.60;99.90;;;;;;5013542;28;20028;-74
2021/12/08 10:47:41;;;;;;;7.88;5.70;;;5.50;99.90;;;;;;5022775;28;20462;-75
2021/12/08 10:55:58;;;;;;;8.90;6.18;;;5.50;99.90;;;;;;5014009;28;20042;-72
2021/12/08 10:58:30;;;;;;;8.57;6.78;;;5.70;99.90;;;;;;4990869;28;20108;-77
2021/12/08 11:00:58;;;;;;;8.27;6.82;;;5.70;99.90;;;;;;5020162;28;20500;-70
2021/12/08 11:03:30;;;;;;;8.75;6.18;;;5.80;99.90;;;;;;5007499;28;20026;-75
2021/12/08 11:05:59;;;;;;;10.82;6.40;;;5.80;99.90;;;;;;5015438;28;20026;-75
2021/12/08 11:08:33;;;;;;;8.32;6.63;;;5.80;99.90;;;;;;5013714;28;20486;-76
2021/12/08 11:11:11;;;;;;;6.43;5.65;;;5.80;99.90;;;;;;5016163;28;20041;-77
2021/12/08 11:13:40;;;;;;;5.97;5.35;;;5.90;99.90;;;;;;5028867;28;20036;-75
2021/12/08 11:16:17;;;;;;;8.95;5.10;;;6.10;99.90;;;;;;5023284;28;20030;-75
2021/12/08 11:18:49;;;;;;;7.10;5.50;;;6.00;99.90;;;;;;5030106;28;20022;-75
2021/12/08 11:21:23;;;;;;;5.80;5.18;;;5.90;99.90;;;;;;5027678;28;20037;-74
2021/12/08 11:23:52;;;;;;;8.95;5.72;;;5.90;99.90;;;;;;5022714;28;20151;-75
2021/12/08 11:26:22;;;;;;;10.30;6.10;;;6.00;99.90;;;;;;5005984;28;20108;-74
2021/12/08 11:29:00;;;;;;;7.20;6.07;;;6.20;99.90;;;;;;5019015;28;20402;-74
2021/12/08 11:31:32;;;;;;;8.80;6.55;;;6.30;99.90;;;;;;5015581;28;20045;-75
2021/12/08 11:34:00;;;;;;;8.23;5.95;;;6.40;99.90;;;;;;5016144;28;20560;-75
2021/12/08 11:36:29;;;;;;;6.47;5.63;;;6.40;99.90;;;;;;5014873;28;20440;-74
2021/12/08 11:38:56;;;;;;;9.50;5.97;;;6.40;99.90;;;;;;5026428;28;20017;-74
2021/12/08 11:41:24;;;;;;;8.30;6.38;;;6.40;99.90;;;;;;5028750;28;20110;-75
2021/12/08 11:43:52;;;;;;;6.00;5.43;;;6.30;99.90;;;;;;5011445;28;20021;-74
2021/12/08 11:46:19;;;;;;;7.57;5.75;;;6.20;99.90;;;;;;5024891;28;20018;-74
2021/12/08 11:49:10;;;;;;;7.90;5.82;;;6.20;99.90;;;;;;5027433;28;20013;-75
2021/12/08 11:51:45;;;;;;;6.77;5.93;;;6.20;99.90;;;;;;5026733;28;20032;-75
2021/12/08 11:54:34;;;;;;;7.65;5.55;;;6.20;99.90;;;;;;5018626;28;20281;-75
2021/12/08 11:57:08;;;;;;;6.28;5.40;;;6.20;99.90;;;;;;5022419;28;20109;-74
2021/12/08 11:59:34;;;;;;;7.47;5.53;;;6.10;99.90;;;;;;5020670;28;20022;-76
2021/12/08 12:01:59;;;;;;;9.13;5.25;;;6.10;99.90;;;;;;5016555;28;20041;-76
2021/12/08 12:04:25;;;;;;;7.57;5.75;;;6.00;99.90;;;;;;5021277;28;20537;-75
2021/12/08 12:06:51;;;;;;;10.85;5.97;;;5.90;99.90;;;;;;5031156;28;20026;-75
2021/12/08 12:09:18;;;;;;;9.43;6.38;;;5.90;99.90;;;;;;4997290;28;20362;-73
2021/12/08 12:11:43;;;;;;;8.30;5.90;;;5.80;99.90;;;;;;5020787;28;20130;-76
2021/12/08 12:14:09;;;;;;;6.82;5.90;;;5.80;99.90;;;;;;5013483;28;20038;-76
2021/12/08 12:16:35;;;;;;;7.90;6.40;;;5.90;99.90;;;;;;5021816;28;20025;-74
2021/12/08 12:19:04;;;;;;;7.82;6.93;;;5.90;99.90;;;;;;5015138;28;20425;-74
2021/12/08 12:21:52;;;;;;;10.20;8.75;;;5.80;99.90;;;;;;5024649;28;20037;-75
2021/12/08 12:24:55;;;;;;;7.97;6.75;;;5.90;99.90;;;;;;5024362;28;20021;-75
2021/12/08 12:27:37;;;;;;;9.82;6.47;;;5.80;99.90;;;;;;5036369;28;20107;-74
2021/12/08 12:30:11;;;;;;;8.35;5.80;;;5.80;99.90;;;;;;5035670;28;20022;-75
2021/12/08 12:32:53;;;;;;;12.65;7.47;;;5.80;99.90;;;;;;5004609;28;20096;-74
2021/12/08 12:35:25;;;;;;;13.82;6.50;;;5.90;99.90;;;;;;5005578;28;20617;-74
2021/12/08 12:38:12;;;;;;;7.68;5.35;;;5.90;99.90;;;;;;5037757;28;20014;-75
2021/12/08 12:40:51;;;;;;;7.78;6.50;;;5.90;99.90;;;;;;5009356;28;20038;-74
2021/12/08 12:43:33;;;;;;;11.02;6.43;;;6.00;99.90;;;;;;5037484;28;20018;-74
2021/12/08 12:46:05;;;;;;;7.22;5.43;;;6.00;99.90;;;;;;5041538;28;20084;-75
2021/12/08 12:48:31;;;;;;;8.45;5.28;;;6.00;99.90;;;;;;5044480;28;20031;-74
2021/12/08 12:51:03;;;;;;;5.18;4.68;;;6.10;99.90;;;;;;5040672;28;20045;-74
2021/12/08 12:53:32;;;;;;;2.67;2.47;;;6.10;99.90;;;;;;5029269;28;20025;-74
2021/12/08 12:55:58;;;;;;;5.28;3.20;;;6.10;99.90;;;;;;5041054;28;20018;-74
2021/12/08 12:58:23;;;;;;;3.85;3.42;;;6.00;99.90;;;;;;5018370;28;20060;-76
2021/12/08 13:01:04;;;;;;;6.72;3.85;;;6.10;99.90;;;;;;5007667;28;20042;-75
2021/12/08 13:03:35;;;;;;;4.20;3.80;;;6.10;99.90;;;;;;5007496;28;20029;-75
2021/12/08 13:06:03;;;;;;;3.15;2.85;;;6.10;99.90;;;;;;5026439;28;20022;-74
2021/12/08 13:08:34;;;;;;;3.67;3.35;;;6.10;99.90;;;;;;5018673;28;20030;-75
2021/12/08 13:11:35;;;;;;;3.58;3.28;;;6.10;99.90;;;;;;5026612;28;20037;-75
2021/12/08 13:14:03;;;;;;;4.47;3.80;;;6.20;99.90;;;;;;5011250;28;20514;-74
2021/12/08 13:16:34;;;;;;;4.32;3.90;;;6.40;99.90;;;;;;5030456;28;20119;-78
2021/12/08 13:19:02;;;;;;;5.88;4.00;;;6.60;99.90;;;;;;5029001;28;20029;-74
2021/12/08 13:21:44;;;;;;;5.30;4.05;;;6.70;99.90;;;;;;5006798;28;20473;-74
2021/12/08 13:24:31;;;;;;;5.55;3.85;;;6.80;99.90;;;;;;5026660;28;20393;-75
2021/12/08 13:27:14;;;;;;;5.53;3.72;;;6.90;99.90;;;;;;5015863;28;20093;-75
2021/12/08 13:29:45;;;;;;;14.07;7.15;;;6.90;99.90;;;;;;5017864;28;20040;-76
2021/12/08 13:32:13;;;;;;;9.68;6.63;;;6.90;99.90;;;;;;5020486;28;20022;-75
2021/12/08 13:34:55;;;;;;;11.88;6.38;;;6.90;99.90;;;;;;5034423;28;20025;-73
2021/12/08 13:37:21;;;;;;;;;;;6.80;99.90;;;;;;5019187;28;20083;-73
2021/12/08 13:39:52;;;;;;;6.65;5.70;;;6.90;99.90;;;;;;5026514;28;19913;-74
2021/12/08 13:42:31;;;;;;;9.93;7.47;;;6.80;99.90;;;;;;5022148;28;20022;-75
2021/12/08 13:44:58;;;;;;;8.50;6.45;;;6.70;99.90;;;;;;5030069;28;20018;-76
2021/12/08 13:47:39;;;;;;;9.70;6.70;;;6.50;99.90;;;;;;5015874;28;20029;-76
2021/12/08 13:50:21;;;;;;;7.10;5.85;;;6.50;99.90;;;;;;5025421;28;20026;-75
2021/12/08 13:53:00;;;;;;;10.30;5.68;;;6.30;99.90;;;;;;5029216;28;20021;-71
2021/12/08 13:55:28;;;;;;;6.53;5.85;;;6.30;99.90;;;;;;4997050;28;20559;-72
2021/12/08 13:58:07;;;;;;;7.97;5.97;;;6.40;99.90;;;;;;5009222;28;20095;-72
2021/12/08 14:00:32;;;;;;;5.90;5.25;;;6.30;99.90;;;;;;5024746;28;20547;-73
2021/12/08 14:03:02;;;;;;;6.20;4.82;;;6.40;99.90;;;;;;5029091;28;20034;-73
2021/12/08 14:05:40;;;;;;;13.57;5.90;;;6.50;99.90;;;;;;5030401;28;20097;-73
2021/12/08 14:08:13;;;;;;;8.63;5.63;;;6.50;99.90;;;;;;5028387;28;20030;-73